sensor_id;sensor_type;location;lat;lon;timestamp;pressure;altitude;pressure_sealevel;temperature;humidity
86020;BME280;76596;51.056;-1.798;2024-02-23T00:01:05;97871.06;;;2.56;82.93
86020;BME280;76596;51.056;-1.798;2024-02-23T00:03:30;97861.00;;;2.53;83.33
86020;BME280;76596;51.056;-1.798;2024-02-23T00:05:58;97865.16;;;2.55;83.95
86020;BME280;76596;51.056;-1.798;2024-02-23T00:08:23;97864.34;;;2.55;83.48
86020;BME280;76596;51.056;-1.798;2024-02-23T00:10:48;97856.06;;;2.47;84.49
86020;BME280;76596;51.056;-1.798;2024-02-23T00:13:14;97861.13;;;2.47;83.82
86020;BME280;76596;51.056;-1.798;2024-02-23T00:15:39;97850.25;;;2.43;84.56
86020;BME280;76596;51.056;-1.798;2024-02-23T00:18:05;97846.06;;;2.42;84.50
86020;BME280;76596;51.056;-1.798;2024-02-23T00:20:31;97844.25;;;2.46;84.97
86020;BME280;76596;51.056;-1.798;2024-02-23T00:22:56;97837.44;;;2.49;84.59
86020;BME280;76596;51.056;-1.798;2024-02-23T00:25:21;97839.13;;;2.49;84.57
86020;BME280;76596;51.056;-1.798;2024-02-23T00:27:48;97830.59;;;2.53;84.40
86020;BME280;76596;51.056;-1.798;2024-02-23T00:30:14;97831.44;;;2.53;84.89
86020;BME280;76596;51.056;-1.798;2024-02-23T00:32:39;97830.56;;;2.54;84.97
86020;BME280;76596;51.056;-1.798;2024-02-23T00:35:05;97821.22;;;2.56;85.06
86020;BME280;76596;51.056;-1.798;2024-02-23T00:37:30;97819.59;;;2.54;84.90
86020;BME280;76596;51.056;-1.798;2024-02-23T00:40:03;97817.06;;;2.54;85.36
86020;BME280;76596;51.056;-1.798;2024-02-23T00:42:30;97816.19;;;2.55;84.36
86020;BME280;76596;51.056;-1.798;2024-02-23T00:44:55;97817.06;;;2.54;84.41
86020;BME280;76596;51.056;-1.798;2024-02-23T00:47:21;97803.72;;;2.46;84.91
86020;BME280;76596;51.056;-1.798;2024-02-23T00:49:46;97799.69;;;2.38;84.77
86020;BME280;76596;51.056;-1.798;2024-02-23T00:52:12;97803.81;;;2.43;85.80
86020;BME280;76596;51.056;-1.798;2024-02-23T00:54:37;97793.75;;;2.39;85.95
86020;BME280;76596;51.056;-1.798;2024-02-23T00:57:02;97789.34;;;2.48;85.61
86020;BME280;76596;51.056;-1.798;2024-02-23T00:59:28;97783.31;;;2.52;85.24
86020;BME280;76596;51.056;-1.798;2024-02-23T01:01:54;97787.13;;;2.68;84.96
86020;BME280;76596;51.056;-1.798;2024-02-23T01:04:20;97774.16;;;2.80;84.42
86020;BME280;76596;51.056;-1.798;2024-02-23T01:06:45;97773.16;;;2.86;84.89
86020;BME280;76596;51.056;-1.798;2024-02-23T01:09:11;97772.81;;;3.00;84.18
86020;BME280;76596;51.056;-1.798;2024-02-23T01:11:36;97767.59;;;3.06;83.55
86020;BME280;76596;51.056;-1.798;2024-02-23T01:14:02;97762.31;;;3.13;84.07
86020;BME280;76596;51.056;-1.798;2024-02-23T01:16:27;97753.53;;;3.25;83.63
86020;BME280;76596;51.056;-1.798;2024-02-23T01:18:52;97741.44;;;3.35;83.96
86020;BME280;76596;51.056;-1.798;2024-02-23T01:21:18;97744.69;;;3.40;83.39
86020;BME280;76596;51.056;-1.798;2024-02-23T01:23:43;97742.78;;;3.48;83.31
86020;BME280;76596;51.056;-1.798;2024-02-23T01:26:09;97737.81;;;3.43;83.32
86020;BME280;76596;51.056;-1.798;2024-02-23T01:28:35;97732.00;;;3.40;83.36
86020;BME280;76596;51.056;-1.798;2024-02-23T01:31:00;97734.88;;;3.57;83.34
86020;BME280;76596;51.056;-1.798;2024-02-23T01:33:26;97733.38;;;3.80;83.17
86020;BME280;76596;51.056;-1.798;2024-02-23T01:35:51;97717.03;;;3.88;82.62
86020;BME280;76596;51.056;-1.798;2024-02-23T01:38:16;97724.53;;;3.93;82.11
86020;BME280;76596;51.056;-1.798;2024-02-23T01:40:45;97732.84;;;3.96;82.13
86020;BME280;76596;51.056;-1.798;2024-02-23T01:43:11;97716.03;;;3.94;82.04
86020;BME280;76596;51.056;-1.798;2024-02-23T01:45:36;97717.72;;;3.93;81.75
86020;BME280;76596;51.056;-1.798;2024-02-23T01:48:02;97718.81;;;3.85;82.57
86020;BME280;76596;51.056;-1.798;2024-02-23T01:50:28;97713.94;;;3.79;82.40
86020;BME280;76596;51.056;-1.798;2024-02-23T01:52:57;97712.34;;;3.76;82.80
86020;BME280;76596;51.056;-1.798;2024-02-23T01:55:24;97698.94;;;3.71;82.85
86020;BME280;76596;51.056;-1.798;2024-02-23T01:57:49;97702.31;;;3.71;82.70
86020;BME280;76596;51.056;-1.798;2024-02-23T02:00:17;97705.44;;;3.80;82.14
86020;BME280;76596;51.056;-1.798;2024-02-23T02:02:43;97699.75;;;4.00;81.10
86020;BME280;76596;51.056;-1.798;2024-02-23T02:05:09;97702.38;;;3.96;81.66
86020;BME280;76596;51.056;-1.798;2024-02-23T02:07:35;97698.88;;;4.01;81.11
86020;BME280;76596;51.056;-1.798;2024-02-23T02:10:00;97704.41;;;4.13;81.06
86020;BME280;76596;51.056;-1.798;2024-02-23T02:12:27;97703.78;;;4.33;80.27
86020;BME280;76596;51.056;-1.798;2024-02-23T02:14:52;97704.34;;;4.41;79.62
86020;BME280;76596;51.056;-1.798;2024-02-23T02:17:17;97702.22;;;4.54;78.91
86020;BME280;76596;51.056;-1.798;2024-02-23T02:19:47;97697.88;;;4.58;79.56
86020;BME280;76596;51.056;-1.798;2024-02-23T02:22:13;97712.34;;;4.56;79.96
86020;BME280;76596;51.056;-1.798;2024-02-23T02:24:38;97705.56;;;4.56;79.31
86020;BME280;76596;51.056;-1.798;2024-02-23T02:27:06;97713.94;;;4.58;78.94
86020;BME280;76596;51.056;-1.798;2024-02-23T02:29:32;97704.72;;;4.56;78.66
86020;BME280;76596;51.056;-1.798;2024-02-23T02:31:57;97704.94;;;4.49;79.73
86020;BME280;76596;51.056;-1.798;2024-02-23T02:34:23;97705.97;;;4.44;79.71
86020;BME280;76596;51.056;-1.798;2024-02-23T02:36:48;97694.84;;;4.46;79.18
86020;BME280;76596;51.056;-1.798;2024-02-23T02:39:14;97699.72;;;4.53;79.00
86020;BME280;76596;51.056;-1.798;2024-02-23T02:41:39;97686.34;;;4.47;79.89
86020;BME280;76596;51.056;-1.798;2024-02-23T02:44:05;97696.72;;;4.41;79.61
86020;BME280;76596;51.056;-1.798;2024-02-23T02:46:30;97699.41;;;4.37;80.24
86020;BME280;76596;51.056;-1.798;2024-02-23T02:48:55;97705.63;;;4.28;80.19
86020;BME280;76596;51.056;-1.798;2024-02-23T02:51:21;97719.34;;;4.22;80.86
86020;BME280;76596;51.056;-1.798;2024-02-23T02:53:46;97720.19;;;4.23;80.48
86020;BME280;76596;51.056;-1.798;2024-02-23T02:56:11;97722.13;;;4.15;81.58
86020;BME280;76596;51.056;-1.798;2024-02-23T02:58:37;97707.97;;;4.08;81.28
86020;BME280;76596;51.056;-1.798;2024-02-23T03:01:02;97714.06;;;4.02;82.08
86020;BME280;76596;51.056;-1.798;2024-02-23T03:03:28;97717.69;;;3.95;81.45
86020;BME280;76596;51.056;-1.798;2024-02-23T03:05:54;97716.97;;;3.90;81.60
86020;BME280;76596;51.056;-1.798;2024-02-23T03:08:19;97723.06;;;3.84;82.31
86020;BME280;76596;51.056;-1.798;2024-02-23T03:10:45;97719.84;;;3.79;82.42
86020;BME280;76596;51.056;-1.798;2024-02-23T03:13:10;97708.16;;;3.74;82.56
86020;BME280;76596;51.056;-1.798;2024-02-23T03:15:35;97705.75;;;3.69;82.82
86020;BME280;76596;51.056;-1.798;2024-02-23T03:18:00;97711.16;;;3.58;83.17
86020;BME280;76596;51.056;-1.798;2024-02-23T03:20:27;97708.47;;;3.63;82.85
86020;BME280;76596;51.056;-1.798;2024-02-23T03:22:52;97712.91;;;3.56;83.12
86020;BME280;76596;51.056;-1.798;2024-02-23T03:25:18;97717.16;;;3.56;83.53
86020;BME280;76596;51.056;-1.798;2024-02-23T03:27:43;97723.28;;;3.49;83.52
86020;BME280;76596;51.056;-1.798;2024-02-23T03:30:09;97726.03;;;3.41;83.50
86020;BME280;76596;51.056;-1.798;2024-02-23T03:32:35;97733.63;;;3.42;84.13
86020;BME280;76596;51.056;-1.798;2024-02-23T03:35:05;97740.53;;;3.37;84.42
86020;BME280;76596;51.056;-1.798;2024-02-23T03:37:31;97733.56;;;3.44;84.81
86020;BME280;76596;51.056;-1.798;2024-02-23T03:39:56;97733.91;;;3.61;84.13
86020;BME280;76596;51.056;-1.798;2024-02-23T03:42:22;97732.97;;;3.65;82.80
86020;BME280;76596;51.056;-1.798;2024-02-23T03:44:47;97733.72;;;3.67;83.06
86020;BME280;76596;51.056;-1.798;2024-02-23T03:47:12;97734.00;;;3.58;83.78
86020;BME280;76596;51.056;-1.798;2024-02-23T03:49:38;97732.22;;;3.62;83.44
86020;BME280;76596;51.056;-1.798;2024-02-23T03:52:04;97727.84;;;3.67;83.03
86020;BME280;76596;51.056;-1.798;2024-02-23T03:57:36;97746.91;;;3.51;83.71
86020;BME280;76596;51.056;-1.798;2024-02-23T04:00:02;97747.50;;;3.59;83.29
86020;BME280;76596;51.056;-1.798;2024-02-23T04:02:28;97758.19;;;3.70;82.02
86020;BME280;76596;51.056;-1.798;2024-02-23T04:04:54;97757.34;;;3.69;82.04
86020;BME280;76596;51.056;-1.798;2024-02-23T04:07:19;97770.75;;;3.75;82.46
86020;BME280;76596;51.056;-1.798;2024-02-23T04:09:45;97758.88;;;3.77;81.96
86020;BME280;76596;51.056;-1.798;2024-02-23T04:12:10;97765.53;;;3.79;81.65
86020;BME280;76596;51.056;-1.798;2024-02-23T04:14:36;97764.00;;;3.74;82.19
86020;BME280;76596;51.056;-1.798;2024-02-23T04:17:06;97763.25;;;3.70;82.16
86020;BME280;76596;51.056;-1.798;2024-02-23T04:19:31;97768.56;;;3.62;82.53
86020;BME280;76596;51.056;-1.798;2024-02-23T04:21:56;97762.84;;;3.56;83.24
86020;BME280;76596;51.056;-1.798;2024-02-23T04:24:22;97759.47;;;3.55;83.31
86020;BME280;76596;51.056;-1.798;2024-02-23T04:26:47;97757.75;;;3.56;83.02
86020;BME280;76596;51.056;-1.798;2024-02-23T04:29:13;97759.38;;;3.58;82.61
86020;BME280;76596;51.056;-1.798;2024-02-23T04:31:38;97762.06;;;3.54;82.73
86020;BME280;76596;51.056;-1.798;2024-02-23T04:34:04;97763.78;;;3.52;82.76
86020;BME280;76596;51.056;-1.798;2024-02-23T04:36:29;97767.03;;;3.57;82.85
86020;BME280;76596;51.056;-1.798;2024-02-23T04:38:54;97768.69;;;3.58;83.33
86020;BME280;76596;51.056;-1.798;2024-02-23T04:41:20;97771.03;;;3.65;82.53
86020;BME280;76596;51.056;-1.798;2024-02-23T04:43:47;97776.34;;;3.56;83.25
86020;BME280;76596;51.056;-1.798;2024-02-23T04:46:12;97775.59;;;3.53;83.39
86020;BME280;76596;51.056;-1.798;2024-02-23T04:48:38;97779.66;;;3.60;83.20
86020;BME280;76596;51.056;-1.798;2024-02-23T04:51:04;97785.34;;;3.68;82.64
86020;BME280;76596;51.056;-1.798;2024-02-23T04:53:29;97787.69;;;3.74;82.46
86020;BME280;76596;51.056;-1.798;2024-02-23T04:55:55;97783.19;;;3.84;81.81
86020;BME280;76596;51.056;-1.798;2024-02-23T04:58:20;97784.66;;;3.91;81.51
86020;BME280;76596;51.056;-1.798;2024-02-23T05:00:47;97795.56;;;3.94;81.60
86020;BME280;76596;51.056;-1.798;2024-02-23T05:03:12;97787.06;;;3.95;81.27
86020;BME280;76596;51.056;-1.798;2024-02-23T05:05:38;97793.69;;;4.01;80.42
86020;BME280;76596;51.056;-1.798;2024-02-23T05:08:03;97792.78;;;4.02;80.39
86020;BME280;76596;51.056;-1.798;2024-02-23T05:10:29;97781.88;;;4.00;80.53
86020;BME280;76596;51.056;-1.798;2024-02-23T05:12:54;97784.41;;;4.00;79.75
86020;BME280;76596;51.056;-1.798;2024-02-23T05:15:20;97793.09;;;3.93;80.60
86020;BME280;76596;51.056;-1.798;2024-02-23T05:17:46;97795.75;;;3.88;80.61
86020;BME280;76596;51.056;-1.798;2024-02-23T05:20:13;97784.84;;;3.85;81.42
86020;BME280;76596;51.056;-1.798;2024-02-23T05:22:39;97794.31;;;3.80;81.17
86020;BME280;76596;51.056;-1.798;2024-02-23T05:25:05;97780.72;;;3.81;80.80
86020;BME280;76596;51.056;-1.798;2024-02-23T05:27:31;97783.25;;;3.82;80.75
86020;BME280;76596;51.056;-1.798;2024-02-23T05:29:57;97783.25;;;3.82;80.88
86020;BME280;76596;51.056;-1.798;2024-02-23T05:32:22;97778.88;;;3.87;80.87
86020;BME280;76596;51.056;-1.798;2024-02-23T05:34:48;97784.84;;;3.85;81.68
86020;BME280;76596;51.056;-1.798;2024-02-23T05:37:16;97773.84;;;3.84;81.56
86020;BME280;76596;51.056;-1.798;2024-02-23T05:39:42;97772.34;;;3.79;81.41
86020;BME280;76596;51.056;-1.798;2024-02-23T05:42:07;97785.09;;;3.77;80.84
86020;BME280;76596;51.056;-1.798;2024-02-23T05:44:33;97781.91;;;3.69;81.76
86020;BME280;76596;51.056;-1.798;2024-02-23T05:46:58;97776.09;;;3.65;81.08
86020;BME280;76596;51.056;-1.798;2024-02-23T05:49:24;97771.88;;;3.64;82.34
86020;BME280;76596;51.056;-1.798;2024-02-23T05:51:49;97776.13;;;3.64;81.90
86020;BME280;76596;51.056;-1.798;2024-02-23T05:54:14;97785.69;;;3.56;82.67
86020;BME280;76596;51.056;-1.798;2024-02-23T05:56:40;97784.19;;;3.49;82.56
86020;BME280;76596;51.056;-1.798;2024-02-23T05:59:05;97789.97;;;3.54;82.64
86020;BME280;76596;51.056;-1.798;2024-02-23T06:01:31;97788.28;;;3.53;82.22
86020;BME280;76596;51.056;-1.798;2024-02-23T06:03:57;97795.34;;;3.43;82.68
86020;BME280;76596;51.056;-1.798;2024-02-23T06:06:22;97792.75;;;3.44;82.95
86020;BME280;76596;51.056;-1.798;2024-02-23T06:08:48;97798.72;;;3.42;82.89
86020;BME280;76596;51.056;-1.798;2024-02-23T06:11:15;97799.00;;;3.33;82.68
86020;BME280;76596;51.056;-1.798;2024-02-23T06:13:40;97808.22;;;3.37;82.32
86020;BME280;76596;51.056;-1.798;2024-02-23T06:16:10;97807.44;;;3.33;82.30
86020;BME280;76596;51.056;-1.798;2024-02-23T06:18:36;97809.38;;;3.24;83.46
86020;BME280;76596;51.056;-1.798;2024-02-23T06:21:16;97808.00;;;3.12;83.56
86020;BME280;76596;51.056;-1.798;2024-02-23T06:23:45;97824.00;;;3.14;83.57
86020;BME280;76596;51.056;-1.798;2024-02-23T06:26:12;97828.28;;;3.12;83.01
86020;BME280;76596;51.056;-1.798;2024-02-23T06:28:38;97829.41;;;3.02;84.14
86020;BME280;76596;51.056;-1.798;2024-02-23T06:31:06;97827.91;;;2.95;84.05
86020;BME280;76596;51.056;-1.798;2024-02-23T06:33:32;97818.81;;;2.86;84.16
86020;BME280;76596;51.056;-1.798;2024-02-23T06:35:57;97824.72;;;2.86;85.04
86020;BME280;76596;51.056;-1.798;2024-02-23T06:38:23;97830.88;;;2.76;85.17
86020;BME280;76596;51.056;-1.798;2024-02-23T06:40:48;97824.22;;;2.72;85.58
86020;BME280;76596;51.056;-1.798;2024-02-23T06:43:13;97826.94;;;2.64;85.35
86020;BME280;76596;51.056;-1.798;2024-02-23T06:45:39;97822.00;;;2.60;85.89
86020;BME280;76596;51.056;-1.798;2024-02-23T06:48:05;97811.22;;;2.50;85.62
86020;BME280;76596;51.056;-1.798;2024-02-23T06:50:30;97815.59;;;2.44;85.60
86020;BME280;76596;51.056;-1.798;2024-02-23T06:52:55;97818.19;;;2.41;86.23
86020;BME280;76596;51.056;-1.798;2024-02-23T06:55:21;97820.09;;;2.32;86.86
86020;BME280;76596;51.056;-1.798;2024-02-23T06:57:46;97822.75;;;2.26;85.99
86020;BME280;76596;51.056;-1.798;2024-02-23T07:00:12;97822.84;;;2.22;86.36
86020;BME280;76596;51.056;-1.798;2024-02-23T07:02:38;97828.84;;;2.18;86.96
86020;BME280;76596;51.056;-1.798;2024-02-23T07:05:03;97822.13;;;2.17;86.19
86020;BME280;76596;51.056;-1.798;2024-02-23T07:07:32;97820.41;;;2.17;86.21
86020;BME280;76596;51.056;-1.798;2024-02-23T07:09:59;97822.94;;;2.17;86.76
86020;BME280;76596;51.056;-1.798;2024-02-23T07:12:24;97828.91;;;2.16;86.50
86020;BME280;76596;51.056;-1.798;2024-02-23T07:14:52;97835.66;;;2.16;86.76
86020;BME280;76596;51.056;-1.798;2024-02-23T07:17:17;97837.25;;;2.20;86.87
86020;BME280;76596;51.056;-1.798;2024-02-23T07:19:43;97837.09;;;2.27;86.49
86020;BME280;76596;51.056;-1.798;2024-02-23T07:22:08;97842.19;;;2.26;86.63
86020;BME280;76596;51.056;-1.798;2024-02-23T07:24:33;97836.25;;;2.27;86.35
86020;BME280;76596;51.056;-1.798;2024-02-23T07:26:59;97837.00;;;2.32;86.20
86020;BME280;76596;51.056;-1.798;2024-02-23T07:29:24;97835.94;;;2.41;86.37
86020;BME280;76596;51.056;-1.798;2024-02-23T07:31:50;97835.78;;;2.48;85.19
86020;BME280;76596;51.056;-1.798;2024-02-23T07:34:15;97840.56;;;2.60;85.98
86020;BME280;76596;51.056;-1.798;2024-02-23T07:36:41;97834.59;;;2.61;85.84
86020;BME280;76596;51.056;-1.798;2024-02-23T07:39:07;97833.63;;;2.67;85.52
86020;BME280;76596;51.056;-1.798;2024-02-23T07:41:33;97828.59;;;2.65;85.08
86020;BME280;76596;51.056;-1.798;2024-02-23T07:43:58;97833.56;;;2.70;85.52
86020;BME280;76596;51.056;-1.798;2024-02-23T07:46:36;97838.66;;;2.70;84.63
86020;BME280;76596;51.056;-1.798;2024-02-23T07:49:02;97844.44;;;2.75;84.26
86020;BME280;76596;51.056;-1.798;2024-02-23T07:51:27;97841.91;;;2.75;84.48
86020;BME280;76596;51.056;-1.798;2024-02-23T07:53:53;97847.19;;;3.00;83.34
86020;BME280;76596;51.056;-1.798;2024-02-23T07:56:18;97859.22;;;3.26;82.84
86020;BME280;76596;51.056;-1.798;2024-02-23T07:58:43;97860.34;;;3.49;82.71
86020;BME280;76596;51.056;-1.798;2024-02-23T08:01:09;97859.63;;;3.43;82.14
86020;BME280;76596;51.056;-1.798;2024-02-23T08:03:34;97854.53;;;3.43;81.87
86020;BME280;76596;51.056;-1.798;2024-02-23T08:05:59;97858.13;;;3.35;82.11
86020;BME280;76596;51.056;-1.798;2024-02-23T08:08:26;97856.59;;;3.29;82.52
86020;BME280;76596;51.056;-1.798;2024-02-23T08:10:53;97876.09;;;3.27;82.72
86020;BME280;76596;51.056;-1.798;2024-02-23T08:13:18;97882.06;;;3.26;82.42
86020;BME280;76596;51.056;-1.798;2024-02-23T08:15:44;97876.38;;;3.49;82.50
86020;BME280;76596;51.056;-1.798;2024-02-23T08:18:09;97873.59;;;3.58;82.37
86020;BME280;76596;51.056;-1.798;2024-02-23T08:20:35;97881.69;;;3.72;80.77
86020;BME280;76596;51.056;-1.798;2024-02-23T08:23:01;97882.28;;;3.81;81.04
86020;BME280;76596;51.056;-1.798;2024-02-23T08:25:27;97875.81;;;4.58;78.89
86020;BME280;76596;51.056;-1.798;2024-02-23T08:27:57;97876.78;;;5.58;75.64
86020;BME280;76596;51.056;-1.798;2024-02-23T08:30:23;97878.03;;;6.42;73.33
86020;BME280;76596;51.056;-1.798;2024-02-23T08:32:49;97888.47;;;6.79;70.27
86020;BME280;76596;51.056;-1.798;2024-02-23T08:35:14;97893.13;;;7.53;68.01
86020;BME280;76596;51.056;-1.798;2024-02-23T08:37:40;97880.66;;;8.61;65.17
86020;BME280;76596;51.056;-1.798;2024-02-23T08:40:07;97888.09;;;9.37;62.64
86020;BME280;76596;51.056;-1.798;2024-02-23T08:42:33;97882.75;;;10.56;60.01
86020;BME280;76596;51.056;-1.798;2024-02-23T08:44:58;97887.47;;;9.84;60.59
86020;BME280;76596;51.056;-1.798;2024-02-23T08:47:24;97890.28;;;8.92;63.05
86020;BME280;76596;51.056;-1.798;2024-02-23T08:49:50;97882.97;;;9.37;63.57
86020;BME280;76596;51.056;-1.798;2024-02-23T08:52:15;97874.88;;;11.05;58.24
86020;BME280;76596;51.056;-1.798;2024-02-23T08:54:40;97872.09;;;12.11;55.39
86020;BME280;76596;51.056;-1.798;2024-02-23T08:57:06;97873.91;;;10.30;57.77
86020;BME280;76596;51.056;-1.798;2024-02-23T08:59:31;97876.03;;;11.60;55.07
86020;BME280;76596;51.056;-1.798;2024-02-23T09:01:56;97879.94;;;11.81;55.34
86020;BME280;76596;51.056;-1.798;2024-02-23T09:04:22;97886.13;;;11.77;54.26
86020;BME280;76596;51.056;-1.798;2024-02-23T09:06:47;97877.84;;;9.87;58.75
86020;BME280;76596;51.056;-1.798;2024-02-23T09:09:15;97885.22;;;10.26;57.40
86020;BME280;76596;51.056;-1.798;2024-02-23T09:11:40;97874.03;;;10.91;57.05
86020;BME280;76596;51.056;-1.798;2024-02-23T09:14:06;97881.03;;;12.06;54.53
86020;BME280;76596;51.056;-1.798;2024-02-23T09:16:31;97884.84;;;11.11;56.48
86020;BME280;76596;51.056;-1.798;2024-02-23T09:18:56;97887.44;;;11.26;55.91
86020;BME280;76596;51.056;-1.798;2024-02-23T09:21:22;97889.84;;;11.73;55.30
86020;BME280;76596;51.056;-1.798;2024-02-23T09:23:47;97890.09;;;12.81;52.21
86020;BME280;76596;51.056;-1.798;2024-02-23T09:26:12;97892.06;;;11.49;54.08
86020;BME280;76596;51.056;-1.798;2024-02-23T09:28:38;97867.75;;;12.40;52.13
86020;BME280;76596;51.056;-1.798;2024-02-23T09:31:03;97881.78;;;12.63;51.44
86020;BME280;76596;51.056;-1.798;2024-02-23T09:33:30;97890.16;;;11.67;53.83
86020;BME280;76596;51.056;-1.798;2024-02-23T09:35:55;97888.19;;;12.01;53.33
86020;BME280;76596;51.056;-1.798;2024-02-23T09:38:21;97886.41;;;10.52;57.44
86020;BME280;76596;51.056;-1.798;2024-02-23T09:40:50;97902.53;;;10.70;56.72
86020;BME280;76596;51.056;-1.798;2024-02-23T09:43:16;97888.31;;;10.00;58.16
86020;BME280;76596;51.056;-1.798;2024-02-23T09:45:42;97899.53;;;9.64;59.96
86020;BME280;76596;51.056;-1.798;2024-02-23T09:48:10;97896.09;;;9.13;61.67
86020;BME280;76596;51.056;-1.798;2024-02-23T09:50:37;97879.63;;;8.28;64.35
86020;BME280;76596;51.056;-1.798;2024-02-23T09:53:04;97900.34;;;8.21;65.87
86020;BME280;76596;51.056;-1.798;2024-02-23T09:55:34;97897.00;;;8.01;66.62
86020;BME280;76596;51.056;-1.798;2024-02-23T09:57:59;97903.19;;;7.76;65.83
86020;BME280;76596;51.056;-1.798;2024-02-23T10:00:25;97911.75;;;7.34;67.25
86020;BME280;76596;51.056;-1.798;2024-02-23T10:02:53;97906.59;;;7.15;67.74
86020;BME280;76596;51.056;-1.798;2024-02-23T10:05:23;97914.66;;;7.47;67.02
86020;BME280;76596;51.056;-1.798;2024-02-23T10:07:52;97908.22;;;7.98;66.71
86020;BME280;76596;51.056;-1.798;2024-02-23T10:10:24;97916.38;;;8.06;65.23
86020;BME280;76596;51.056;-1.798;2024-02-23T10:12:51;97910.31;;;9.01;64.29
86020;BME280;76596;51.056;-1.798;2024-02-23T10:15:17;97905.00;;;9.41;61.44
86020;BME280;76596;51.056;-1.798;2024-02-23T10:17:43;97915.75;;;9.82;61.45
86020;BME280;76596;51.056;-1.798;2024-02-23T10:20:08;97902.81;;;9.33;62.95
86020;BME280;76596;51.056;-1.798;2024-02-23T10:22:35;97903.84;;;8.94;63.83
86020;BME280;76596;51.056;-1.798;2024-02-23T10:25:00;97918.25;;;8.78;64.60
86020;BME280;76596;51.056;-1.798;2024-02-23T10:27:26;97922.97;;;8.87;65.33
86020;BME280;76596;51.056;-1.798;2024-02-23T10:29:51;97920.34;;;9.23;63.27
86020;BME280;76596;51.056;-1.798;2024-02-23T10:32:18;97927.97;;;7.94;66.68
86020;BME280;76596;51.056;-1.798;2024-02-23T10:34:45;97932.16;;;7.95;66.40
86020;BME280;76596;51.056;-1.798;2024-02-23T10:37:12;97926.59;;;8.06;66.72
86020;BME280;76596;51.056;-1.798;2024-02-23T10:39:38;97936.59;;;7.92;67.29
86020;BME280;76596;51.056;-1.798;2024-02-23T10:42:04;97941.13;;;7.45;66.97
86020;BME280;76596;51.056;-1.798;2024-02-23T10:44:33;97943.19;;;7.77;65.67
86020;BME280;76596;51.056;-1.798;2024-02-23T10:46:58;97926.72;;;8.42;64.96
86020;BME280;76596;51.056;-1.798;2024-02-23T10:49:28;97933.28;;;9.90;61.20
86020;BME280;76596;51.056;-1.798;2024-02-23T10:51:54;97943.34;;;10.43;58.11
86020;BME280;76596;51.056;-1.798;2024-02-23T10:54:20;97933.16;;;9.58;60.37
86020;BME280;76596;51.056;-1.798;2024-02-23T10:56:48;97933.50;;;10.83;58.49
86020;BME280;76596;51.056;-1.798;2024-02-23T10:59:14;97938.63;;;10.36;60.36
86020;BME280;76596;51.056;-1.798;2024-02-23T11:01:45;97939.63;;;9.13;62.46
86020;BME280;76596;51.056;-1.798;2024-02-23T11:04:12;97938.69;;;8.42;64.05
86020;BME280;76596;51.056;-1.798;2024-02-23T11:06:37;97946.22;;;8.45;64.25
86020;BME280;76596;51.056;-1.798;2024-02-23T11:09:12;97931.09;;;8.95;63.07
86020;BME280;76596;51.056;-1.798;2024-02-23T11:11:38;97933.31;;;9.72;60.47
86020;BME280;76596;51.056;-1.798;2024-02-23T11:14:07;97939.22;;;10.07;60.50
86020;BME280;76596;51.056;-1.798;2024-02-23T11:16:38;97938.47;;;10.70;57.92
86020;BME280;76596;51.056;-1.798;2024-02-23T11:19:06;97941.88;;;10.39;59.86
86020;BME280;76596;51.056;-1.798;2024-02-23T11:21:35;97936.78;;;11.47;57.73
86020;BME280;76596;51.056;-1.798;2024-02-23T11:24:03;97942.78;;;11.31;57.92
86020;BME280;76596;51.056;-1.798;2024-02-23T11:26:29;97939.13;;;10.58;56.80
86020;BME280;76596;51.056;-1.798;2024-02-23T11:28:54;97927.47;;;10.84;57.13
86020;BME280;76596;51.056;-1.798;2024-02-23T11:31:23;97929.91;;;11.17;56.61
86020;BME280;76596;51.056;-1.798;2024-02-23T11:33:53;97936.41;;;11.83;55.85
86020;BME280;76596;51.056;-1.798;2024-02-23T11:36:32;97931.34;;;11.37;55.60
86020;BME280;76596;51.056;-1.798;2024-02-23T11:38:59;97929.13;;;11.75;54.03
86020;BME280;76596;51.056;-1.798;2024-02-23T11:41:26;97920.97;;;12.40;51.53
86020;BME280;76596;51.056;-1.798;2024-02-23T11:43:53;97911.81;;;13.17;50.87
86020;BME280;76596;51.056;-1.798;2024-02-23T11:46:19;97916.72;;;14.62;48.03
86020;BME280;76596;51.056;-1.798;2024-02-23T11:48:45;97921.50;;;15.62;44.46
86020;BME280;76596;51.056;-1.798;2024-02-23T11:51:14;97919.72;;;12.74;50.27
86020;BME280;76596;51.056;-1.798;2024-02-23T11:53:40;97910.44;;;12.30;50.70
86020;BME280;76596;51.056;-1.798;2024-02-23T11:56:06;97916.09;;;12.50;50.22
86020;BME280;76596;51.056;-1.798;2024-02-23T11:58:34;97906.97;;;13.39;47.96
86020;BME280;76596;51.056;-1.798;2024-02-23T12:01:00;97906.13;;;13.39;48.21
86020;BME280;76596;51.056;-1.798;2024-02-23T12:03:28;97901.91;;;12.57;49.09
86020;BME280;76596;51.056;-1.798;2024-02-23T12:05:57;97904.50;;;11.71;53.13
86020;BME280;76596;51.056;-1.798;2024-02-23T12:08:26;97904.38;;;11.14;52.87
86020;BME280;76596;51.056;-1.798;2024-02-23T12:10:54;97898.31;;;10.38;53.52
86020;BME280;76596;51.056;-1.798;2024-02-23T12:13:19;97894.19;;;10.67;54.99
86020;BME280;76596;51.056;-1.798;2024-02-23T12:15:45;97898.66;;;10.63;54.67
86020;BME280;76596;51.056;-1.798;2024-02-23T12:18:11;97897.31;;;9.91;57.56
86020;BME280;76596;51.056;-1.798;2024-02-23T12:20:36;97893.22;;;9.71;58.18
86020;BME280;76596;51.056;-1.798;2024-02-23T12:23:02;97894.09;;;10.03;56.27
86020;BME280;76596;51.056;-1.798;2024-02-23T12:25:27;97888.81;;;9.73;56.26
86020;BME280;76596;51.056;-1.798;2024-02-23T12:27:56;97885.03;;;9.13;58.64
86020;BME280;76596;51.056;-1.798;2024-02-23T12:30:22;97887.94;;;8.88;59.04
86020;BME280;76596;51.056;-1.798;2024-02-23T12:32:48;97882.16;;;9.19;57.32
86020;BME280;76596;51.056;-1.798;2024-02-23T12:35:14;97883.38;;;9.29;59.22
86020;BME280;76596;51.056;-1.798;2024-02-23T12:37:40;97881.59;;;9.64;58.86
86020;BME280;76596;51.056;-1.798;2024-02-23T12:40:09;97884.78;;;9.52;57.65
86020;BME280;76596;51.056;-1.798;2024-02-23T12:42:34;97874.00;;;9.96;56.63
86020;BME280;76596;51.056;-1.798;2024-02-23T12:45:00;97884.59;;;10.39;57.47
86020;BME280;76596;51.056;-1.798;2024-02-23T12:47:26;97878.53;;;10.40;55.87
86020;BME280;76596;51.056;-1.798;2024-02-23T12:49:51;97876.16;;;10.03;56.95
86020;BME280;76596;51.056;-1.798;2024-02-23T12:52:16;97873.59;;;9.37;56.28
86020;BME280;76596;51.056;-1.798;2024-02-23T12:54:42;97872.22;;;9.30;56.99